Time;durP1;ratioP1;P1;durP2;ratioP2;P2;SDS_P1;SDS_P2;PMS_P1;PMS_P2;Temp;Humidity;BMP_temperature;BMP_pressure;BME280_temperature;BME280_humidity;BME280_pressure;Samples;Min_cycle;Max_cycle;Signal;HPM_P1;HPM_P2
2023/01/25 00:00:44;;;;;;;23.38;13.25;;;;;;;7.70;48.72;103517.38;5072506;27;99241;-71
2023/01/25 00:03:11;;;;;;;26.95;13.20;;;;;;;7.99;48.62;103515.31;5071651;27;97302;-69
2023/01/25 00:05:37;;;;;;;27.75;12.52;;;;;;;7.72;49.39;103509.50;5068436;27;96862;-69
2023/01/25 00:08:05;;;;;;;33.38;13.55;;;;;;;7.65;49.38;103503.22;5070059;27;101194;-71
2023/01/25 00:10:32;;;;;;;23.85;12.68;;;;;;;7.56;49.80;103488.13;5070100;27;98879;-70
2023/01/25 00:12:58;;;;;;;26.27;12.75;;;;;;;7.65;49.64;103487.44;5065432;27;97084;-71
2023/01/25 00:15:25;;;;;;;23.63;12.77;;;;;;;7.61;49.66;103489.09;5070723;27;97089;-70
2023/01/25 00:17:51;;;;;;;24.13;12.48;;;;;;;7.79;49.16;103485.09;5074911;27;98534;-70
2023/01/25 00:20:17;;;;;;;26.52;12.02;;;;;;;8.12;48.21;103477.81;5075984;27;98707;-70
2023/01/25 00:22:44;;;;;;;25.95;12.88;;;;;;;8.23;47.87;103478.88;5075898;27;97179;-70
2023/01/25 00:25:12;;;;;;;24.42;12.68;;;;;;;8.25;47.88;103469.28;5084991;27;96775;-71
2023/01/25 00:27:38;;;;;;;27.58;14.15;;;;;;;8.30;47.64;103465.00;5072630;27;98104;-69
2023/01/25 00:30:06;;;;;;;24.67;13.52;;;;;;;8.15;48.22;103454.16;5071461;27;99543;-70
2023/01/25 00:32:49;;;;;;;23.00;12.23;;;;;;;7.78;49.60;103449.09;5067568;27;98808;-70
2023/01/25 00:35:15;;;;;;;22.95;12.07;;;;;;;7.62;50.06;103445.25;5071945;27;96823;-71
2023/01/25 00:37:43;;;;;;;23.70;13.02;;;;;;;7.59;50.01;103427.69;5069899;27;98873;-71
2023/01/25 00:40:12;;;;;;;24.02;11.93;;;;;;;7.48;50.14;103429.19;5070493;27;101015;-71
2023/01/25 00:42:40;;;;;;;24.67;12.48;;;;;;;7.48;50.59;103420.44;5071459;27;96750;-70
2023/01/25 00:45:08;;;;;;;25.67;13.02;;;;;;;7.26;51.32;103415.59;5066147;27;96892;-70
2023/01/25 00:47:34;;;;;;;25.35;12.60;;;;;;;7.39;51.22;103409.72;5078873;27;101710;-71
2023/01/25 00:50:01;;;;;;;26.55;12.60;;;;;;;7.56;50.26;103401.31;5059491;27;99053;-71
2023/01/25 00:52:27;;;;;;;27.63;13.85;;;;;;;7.63;50.20;103398.78;5074638;27;98122;-70
2023/01/25 00:54:54;;;;;;;22.42;12.57;;;;;;;7.50;50.52;103393.28;5084693;27;97357;-70
2023/01/25 00:57:22;;;;;;;22.92;13.02;;;;;;;7.59;50.36;103393.47;5075010;27;98116;-70
2023/01/25 00:59:48;;;;;;;28.25;13.07;;;;;;;8.09;49.34;103403.13;5077032;27;98035;-69
2023/01/25 01:02:15;;;;;;;25.55;14.30;;;;;;;7.93;49.79;103399.34;5074155;27;97186;-74
2023/01/25 01:04:41;;;;;;;25.70;13.15;;;;;;;7.50;50.30;103405.56;5080326;27;97620;-71
2023/01/25 01:07:07;;;;;;;28.77;13.20;;;;;;;7.41;50.70;103408.91;5061600;27;99624;-70
2023/01/25 01:09:34;;;;;;;23.60;13.52;;;;;;;7.88;49.96;103411.53;5068754;27;97603;-69
2023/01/25 01:12:00;;;;;;;23.85;13.23;;;;;;;8.02;49.62;103410.91;5072892;27;97157;-71
2023/01/25 01:14:28;;;;;;;25.25;14.45;;;;;;;8.01;49.54;103418.78;5068080;27;97113;-70
2023/01/25 01:16:55;;;;;;;30.63;15.50;;;;;;;8.21;49.04;103419.13;5074493;27;97854;-71
2023/01/25 01:19:21;;;;;;;31.90;16.08;;;;;;;8.15;48.99;103417.28;5073267;27;97866;-70
2023/01/25 01:21:48;;;;;;;26.67;13.93;;;;;;;8.15;49.08;103412.00;5067078;27;101137;-69
2023/01/25 01:24:14;;;;;;;28.60;14.20;;;;;;;8.17;48.91;103406.78;5066961;27;96902;-70
2023/01/25 01:26:40;;;;;;;26.63;13.82;;;;;;;8.20;49.00;103415.63;5063563;27;99328;-69
2023/01/25 01:29:07;;;;;;;24.52;14.15;;;;;;;8.20;49.16;103415.63;5070055;27;100611;-70
2023/01/25 01:31:36;;;;;;;30.02;15.05;;;;;;;8.27;48.89;103416.63;5072179;27;98484;-69
2023/01/25 01:34:02;;;;;;;28.85;15.20;;;;;;;8.36;48.58;103407.13;5076976;27;97202;-71
2023/01/25 01:36:30;;;;;;;25.98;13.57;;;;;;;8.44;48.36;103415.16;5076475;27;102118;-71
2023/01/25 01:38:58;;;;;;;30.58;14.48;;;;;;;8.26;48.53;103407.81;5067384;27;97486;-69
2023/01/25 01:41:25;;;;;;;27.95;14.20;;;;;;;8.33;48.58;103401.84;5070840;27;96785;-71
2023/01/25 01:43:52;;;;;;;27.60;15.05;;;;;;;8.08;48.83;103399.59;5073756;27;97474;-70
2023/01/25 01:46:23;;;;;;;30.02;15.15;;;;;;;8.12;48.92;103406.72;5075999;27;102679;-70
2023/01/25 01:48:55;;;;;;;32.67;15.52;;;;;;;7.99;49.57;103402.09;5074378;27;101038;-69
2023/01/25 01:51:27;;;;;;;28.08;15.82;;;;;;;8.44;49.06;103393.19;5075665;27;96980;-69
2023/01/25 01:53:57;;;;;;;29.10;15.45;;;;;;;8.42;48.66;103397.53;5077198;27;97603;-69
2023/01/25 01:56:30;;;;;;;31.92;16.50;;;;;;;8.11;49.22;103397.03;5069821;27;100927;-69
2023/01/25 01:58:58;;;;;;;27.65;15.02;;;;;;;8.40;48.55;103393.13;5071318;27;99416;-70
2023/01/25 02:01:25;;;;;;;25.67;14.70;;;;;;;8.43;48.69;103391.41;5078224;27;96797;-70
2023/01/25 02:03:53;;;;;;;35.17;16.45;;;;;;;8.26;48.74;103391.13;5066262;27;97643;-69
2023/01/25 02:06:28;;;;;;;27.70;15.07;;;;;;;8.44;48.90;103390.56;5070071;27;99013;-69
2023/01/25 02:08:55;;;;;;;28.40;14.52;;;;;;;8.36;48.93;103388.69;5065186;27;99513;-70
2023/01/25 02:11:22;;;;;;;31.55;15.52;;;;;;;8.51;48.49;103392.41;5062782;27;97299;-70
2023/01/25 02:13:48;;;;;;;31.00;16.17;;;;;;;8.15;49.30;103390.94;5070662;27;98989;-70
2023/01/25 02:16:19;;;;;;;32.85;15.68;;;;;;;8.25;48.99;103392.00;5070235;27;99298;-70
2023/01/25 02:18:46;;;;;;;31.10;15.88;;;;;;;8.40;49.13;103387.84;5073367;27;97735;-70
2023/01/25 02:21:14;;;;;;;29.85;16.17;;;;;;;8.00;49.83;103380.16;5064957;27;97317;-70
2023/01/25 02:23:47;;;;;;;26.50;15.30;;;;;;;8.07;50.03;103382.06;5078893;27;96868;-70
2023/01/25 02:26:17;;;;;;;30.00;14.68;;;;;;;8.21;49.63;103380.50;5074238;27;99320;-70
2023/01/25 02:28:48;;;;;;;32.42;16.33;;;;;;;7.91;50.25;103375.63;5076630;27;99344;-70
2023/01/25 02:31:15;;;;;;;33.47;15.90;;;;;;;7.92;50.48;103376.50;5069115;27;99515;-69
2023/01/25 02:33:42;;;;;;;24.40;13.80;;;;;;;7.93;50.28;103370.41;5074439;27;97379;-69
2023/01/25 02:36:20;;;;;;;30.65;15.48;;;;;;;7.95;50.51;103374.81;5065426;27;99427;-70
2023/01/25 02:38:52;;;;;;;27.50;14.57;;;;;;;7.53;51.36;103372.31;5078632;27;99035;-70
2023/01/25 02:41:25;;;;;;;31.13;15.27;;;;;;;7.71;51.10;103370.88;5068701;27;97402;-70
2023/01/25 02:43:51;;;;;;;30.98;16.20;;;;;;;7.74;51.23;103365.66;5058331;27;97544;-70
2023/01/25 02:46:24;;;;;;;29.52;15.52;;;;;;;8.13;50.41;103370.72;5073469;27;98963;-69
2023/01/25 02:48:51;;;;;;;36.45;16.27;;;;;;;8.15;50.21;103361.97;5067947;27;98992;-70
2023/01/25 02:51:17;;;;;;;31.83;15.93;;;;;;;8.26;49.91;103363.03;5067726;27;96801;-69
2023/01/25 02:53:44;;;;;;;28.70;15.23;;;;;;;8.29;49.77;103357.81;5066975;27;97112;-69
2023/01/25 02:56:10;;;;;;;30.67;15.55;;;;;;;7.98;50.72;103363.44;5075546;27;98851;-70
2023/01/25 02:58:38;;;;;;;29.52;15.25;;;;;;;7.75;51.15;103360.41;5066195;27;98926;-70
2023/01/25 03:01:05;;;;;;;26.85;14.25;;;;;;;7.74;51.59;103355.16;5076800;27;97645;-71
2023/01/25 03:03:31;;;;;;;30.83;15.68;;;;;;;7.72;51.83;103357.75;5063524;27;97751;-69
2023/01/25 03:05:57;;;;;;;28.17;14.90;;;;;;;7.81;51.61;103351.75;5067075;27;101760;-70
2023/01/25 03:08:24;;;;;;;26.35;15.27;;;;;;;7.69;51.77;103346.25;5060995;27;99240;-70
2023/01/25 03:10:50;;;;;;;32.78;17.20;;;;;;;7.71;51.26;103349.81;5070547;27;97139;-70
2023/01/25 03:13:17;;;;;;;32.55;15.77;;;;;;;7.87;51.30;103357.13;5069938;27;97333;-70
2023/01/25 03:15:44;;;;;;;32.67;16.52;;;;;;;7.85;51.22;103353.56;5063815;27;98985;-70
2023/01/25 03:18:11;;;;;;;28.95;14.80;;;;;;;7.91;51.15;103353.69;5074283;27;101243;-70
2023/01/25 03:20:37;;;;;;;35.22;16.55;;;;;;;8.09;50.55;103346.06;5071040;27;98541;-70
2023/01/25 03:23:03;;;;;;;32.75;16.58;;;;;;;7.89;50.69;103350.13;5060317;27;101455;-69
2023/01/25 03:25:30;;;;;;;24.75;13.55;;;;;;;7.97;50.72;103345.88;5070248;27;99168;-69
2023/01/25 03:27:56;;;;;;;28.02;15.35;;;;;;;8.12;50.59;103339.97;5068028;27;99254;-70
2023/01/25 03:30:24;;;;;;;28.55;14.82;;;;;;;8.06;50.79;103334.63;5062823;27;98929;-70
2023/01/25 03:32:52;;;;;;;27.98;15.07;;;;;;;8.15;51.00;103333.00;5067059;27;97260;-70
2023/01/25 03:35:18;;;;;;;28.85;15.07;;;;;;;7.99;50.48;103331.00;5073736;27;98869;-70
2023/01/25 03:37:45;;;;;;;28.38;15.15;;;;;;;7.89;51.03;103334.31;5066112;27;99636;-70
2023/01/25 03:40:12;;;;;;;31.55;15.98;;;;;;;7.75;51.43;103327.94;5063688;27;98738;-70
2023/01/25 03:42:38;;;;;;;29.95;15.57;;;;;;;7.96;50.76;103331.81;5071549;27;98839;-69
2023/01/25 03:45:06;;;;;;;28.00;15.80;;;;;;;7.96;51.03;103334.47;5066667;27;99334;-69
2023/01/25 03:47:33;;;;;;;28.90;15.07;;;;;;;8.00;50.93;103327.50;5071231;27;99124;-70
2023/01/25 03:50:01;;;;;;;28.25;14.60;;;;;;;7.85;51.22;103332.50;5084759;27;97606;-69
2023/01/25 03:52:28;;;;;;;28.33;15.82;;;;;;;7.81;51.62;103320.19;5080319;27;96799;-68
2023/01/25 03:54:55;;;;;;;28.33;16.98;;;;;;;7.68;52.09;103312.94;5067427;27;98797;-70
2023/01/25 03:57:21;;;;;;;31.25;15.75;;;;;;;7.86;51.45;103314.13;5066823;27;98928;-69
2023/01/25 03:59:57;;;;;;;29.45;15.60;;;;;;;7.86;51.38;103307.97;5071030;27;97276;-71
2023/01/25 04:02:23;;;;;;;28.67;14.63;;;;;;;7.94;51.31;103306.34;5067320;27;96854;-70
2023/01/25 04:04:50;;;;;;;29.67;16.65;;;;;;;7.93;51.35;103315.09;5065253;27;99340;-70
2023/01/25 04:07:18;;;;;;;31.35;16.52;;;;;;;7.82;51.80;103292.97;5072170;27;99377;-70
2023/01/25 04:09:45;;;;;;;32.50;16.73;;;;;;;8.02;51.52;103288.91;5067503;27;97490;-70
2023/01/25 04:12:11;;;;;;;34.35;17.15;;;;;;;7.75;52.01;103291.09;5074991;27;97397;-69
2023/01/25 04:14:38;;;;;;;29.95;17.13;;;;;;;7.86;51.62;103285.16;5072752;27;98918;-68
2023/01/25 04:17:07;;;;;;;37.08;17.88;;;;;;;7.85;51.59;103275.50;5079795;27;98978;-69
2023/01/25 04:19:33;;;;;;;32.88;16.25;;;;;;;8.10;50.93;103271.47;5093803;27;97174;-68
2023/01/25 04:22:00;;;;;;;29.85;15.90;;;;;;;8.07;50.98;103266.19;5082282;27;97547;-68
2023/01/25 04:24:28;;;;;;;34.13;16.50;;;;;;;7.77;51.97;103271.84;5092679;27;98789;-69
2023/01/25 04:26:54;;;;;;;33.65;17.10;;;;;;;7.60;52.30;103271.59;5077588;27;100831;-68
2023/01/25 04:29:21;;;;;;;29.88;16.48;;;;;;;7.85;51.63;103271.97;5076903;27;98774;-68
2023/01/25 04:31:47;;;;;;;31.48;16.35;;;;;;;7.89;51.60;103263.25;5061546;27;98785;-69
2023/01/25 04:34:14;;;;;;;32.38;17.52;;;;;;;8.02;51.40;103267.84;5072872;27;99459;-70
2023/01/25 04:36:40;;;;;;;35.15;16.60;;;;;;;7.83;51.54;103256.13;5074401;27;98889;-70
2023/01/25 04:39:07;;;;;;;31.65;16.73;;;;;;;8.11;51.24;103251.28;5077611;27;96690;-70
2023/01/25 04:41:34;;;;;;;30.90;16.75;;;;;;;7.91;51.97;103249.25;5073043;27;97514;-69
2023/01/25 04:44:01;;;;;;;28.90;15.18;;;;;;;7.67;51.96;103248.00;5072945;27;99090;-69
2023/01/25 04:46:27;;;;;;;26.63;14.80;;;;;;;7.60;52.67;103245.28;5072601;27;98858;-70
2023/01/25 04:48:54;;;;;;;24.90;14.85;;;;;;;7.71;52.49;103252.44;5073245;27;97398;-70
2023/01/25 04:51:20;;;;;;;24.85;13.13;;;;;;;7.98;52.01;103239.69;5070428;27;97700;-70
2023/01/25 04:53:47;;;;;;;30.30;14.40;;;;;;;7.78;52.68;103238.50;5072877;27;98891;-69
2023/01/25 04:56:13;;;;;;;23.17;12.40;;;;;;;8.17;51.65;103228.56;5072137;27;100997;-70
2023/01/25 04:58:41;;;;;;;27.15;13.18;;;;;;;7.88;52.38;103233.41;5071807;27;97660;-70
2023/01/25 05:01:07;;;;;;;28.20;15.20;;;;;;;7.83;52.29;103237.72;5069402;27;98484;-69
2023/01/25 05:03:34;;;;;;;27.45;14.40;;;;;;;7.94;51.87;103222.09;5071777;27;98940;-69
2023/01/25 05:06:00;;;;;;;29.85;14.82;;;;;;;7.76;52.27;103229.69;5062415;27;98853;-70
2023/01/25 05:08:27;;;;;;;29.77;14.75;;;;;;;7.64;52.43;103222.50;5071407;27;98728;-70
2023/01/25 05:10:53;;;;;;;29.83;15.70;;;;;;;7.78;52.38;103214.81;5080430;27;97125;-69
2023/01/25 05:13:20;;;;;;;28.60;15.75;;;;;;;7.84;52.59;103221.06;5067724;27;98699;-69
2023/01/25 05:15:47;;;;;;;26.05;13.38;;;;;;;7.90;52.44;103218.53;5076052;27;99220;-69
2023/01/25 05:18:14;;;;;;;22.50;12.90;;;;;;;7.98;52.21;103210.75;5066136;27;96856;-70
2023/01/25 05:20:40;;;;;;;20.40;11.63;;;;;;;7.74;52.85;103220.91;5072826;27;96993;-69
2023/01/25 05:23:06;;;;;;;25.08;12.25;;;;;;;7.95;52.25;103213.31;5073750;27;99306;-69
2023/01/25 05:28:17;;;;;;;18.95;10.82;;;;;;;7.93;52.32;103208.06;5067488;27;97655;-68
2023/01/25 05:30:43;;;;;;;23.50;12.27;;;;;;;8.16;51.86;103204.81;5070663;27;97312;-69
2023/01/25 05:33:11;;;;;;;25.92;12.82;;;;;;;8.02;52.57;103202.00;5075030;27;99522;-70
2023/01/25 05:35:37;;;;;;;26.27;12.52;;;;;;;8.05;52.36;103203.81;5069635;27;98750;-71
2023/01/25 05:38:04;;;;;;;24.65;13.07;;;;;;;8.02;52.59;103213.44;5069003;27;97276;-68
2023/01/25 05:40:30;;;;;;;18.88;11.23;;;;;;;7.93;52.69;103215.06;5068023;27;97344;-70
2023/01/25 05:42:58;;;;;;;23.02;12.50;;;;;;;8.00;52.57;103211.66;5076685;27;99348;-69
2023/01/25 05:45:25;;;;;;;22.70;12.30;;;;;;;8.04;52.73;103217.84;5071234;27;99157;-69
2023/01/25 05:47:52;;;;;;;22.63;11.43;;;;;;;8.12;52.50;103218.84;5068363;27;97239;-73
2023/01/25 05:50:20;;;;;;;22.58;11.63;;;;;;;8.32;52.05;103218.28;5075600;27;98995;-70
2023/01/25 05:52:47;;;;;;;18.92;11.23;;;;;;;8.09;52.45;103222.28;5074655;27;98956;-70
2023/01/25 05:55:13;;;;;;;22.00;10.95;;;;;;;8.01;52.58;103209.03;5078010;27;97509;-70
2023/01/25 05:57:39;;;;;;;19.77;11.10;;;;;;;7.99;52.92;103209.88;5078669;27;96810;-70
2023/01/25 06:00:07;;;;;;;22.40;11.18;;;;;;;8.25;52.31;103208.50;5067121;27;97050;-71
2023/01/25 06:02:34;;;;;;;19.42;11.15;;;;;;;8.26;52.14;103205.00;5077150;27;99526;-70
2023/01/25 06:05:00;;;;;;;22.75;11.55;;;;;;;8.22;52.45;103195.25;5071403;27;99011;-69
2023/01/25 06:07:28;;;;;;;24.40;11.70;;;;;;;8.26;52.61;103202.34;5067789;27;97182;-69
2023/01/25 06:09:54;;;;;;;19.88;11.68;;;;;;;8.00;53.30;103202.00;5062160;27;99242;-71
2023/01/25 06:12:22;;;;;;;22.90;11.20;;;;;;;8.08;52.98;103198.56;5051912;27;99123;-69
2023/01/25 06:14:48;;;;;;;18.85;10.38;;;;;;;8.12;52.62;103192.50;5055350;27;98818;-69
2023/01/25 06:17:14;;;;;;;19.05;10.88;;;;;;;7.83;53.34;103192.06;5062725;27;96817;-70
2023/01/25 06:19:41;;;;;;;22.45;12.00;;;;;;;7.73;53.71;103184.94;5066367;27;97363;-70
2023/01/25 06:22:08;;;;;;;18.50;10.68;;;;;;;7.71;53.83;103189.28;5068837;27;98857;-70
2023/01/25 06:24:36;;;;;;;19.70;9.35;;;;;;;7.55;54.10;103194.28;5074169;27;100384;-70
2023/01/25 06:27:14;;;;;;;19.75;9.75;;;;;;;7.72;53.97;103183.16;5064561;27;97206;-70
2023/01/25 06:29:40;;;;;;;17.92;9.75;;;;;;;7.55;54.32;103191.66;5057151;27;98492;-69
2023/01/25 06:32:07;;;;;;;17.65;9.65;;;;;;;7.49;54.53;103191.56;5062209;27;101473;-69
2023/01/25 06:34:33;;;;;;;18.45;9.55;;;;;;;7.42;54.60;103194.06;5062563;27;99410;-70
2023/01/25 06:37:00;;;;;;;15.30;8.50;;;;;;;7.56;54.33;103193.44;5056541;27;97643;-70
2023/01/25 06:39:26;;;;;;;16.55;8.90;;;;;;;7.48;54.34;103195.06;5058350;27;97218;-70
2023/01/25 06:41:55;;;;;;;16.05;9.55;;;;;;;7.61;54.19;103191.75;5056129;27;99191;-70
2023/01/25 06:44:21;;;;;;;18.50;10.00;;;;;;;7.60;53.95;103190.00;5066636;27;98769;-72
2023/01/25 06:46:48;;;;;;;21.42;11.02;;;;;;;7.62;54.08;103190.00;5071279;27;96806;-70
2023/01/25 06:49:15;;;;;;;16.55;9.50;;;;;;;7.82;53.61;103178.03;5072992;27;96778;-70
2023/01/25 06:51:41;;;;;;;18.63;10.07;;;;;;;7.82;53.72;103177.13;5060384;27;100231;-71
2023/01/25 06:54:08;;;;;;;23.77;11.18;;;;;;;7.61;54.26;103170.69;5068677;27;99118;-69
2023/01/25 06:56:34;;;;;;;19.73;10.90;;;;;;;7.76;53.80;103169.16;5078170;27;96749;-69
2023/01/25 06:59:02;;;;;;;20.48;11.45;;;;;;;7.67;54.16;103159.41;5072115;27;96811;-70
2023/01/25 07:01:29;;;;;;;24.80;11.52;;;;;;;7.58;54.47;103154.88;5075162;27;101729;-68
2023/01/25 07:03:57;;;;;;;24.23;11.20;;;;;;;7.58;54.58;103154.88;5066653;27;98922;-69
2023/01/25 07:06:33;;;;;;;25.00;12.18;;;;;;;7.69;54.45;103156.78;5076724;27;97696;-69
2023/01/25 07:09:03;;;;;;;27.30;13.80;;;;;;;7.50;54.70;103150.34;5078050;27;99630;-70
2023/01/25 07:11:30;;;;;;;24.95;13.20;;;;;;;7.83;54.08;103156.13;5074636;27;98592;-69
2023/01/25 07:13:56;;;;;;;23.98;13.38;;;;;;;7.71;54.26;103150.69;5075518;27;100651;-70
2023/01/25 07:16:24;;;;;;;23.65;13.30;;;;;;;7.60;54.58;103155.81;5067236;27;97209;-71
2023/01/25 07:18:50;;;;;;;26.15;13.23;;;;;;;7.65;54.70;103155.84;5075569;27;99522;-70
2023/01/25 07:21:21;;;;;;;25.23;13.20;;;;;;;7.58;54.75;103144.34;5076084;27;99736;-70
2023/01/25 07:23:47;;;;;;;26.27;14.32;;;;;;;7.32;55.49;103143.06;5081163;27;101483;-70
2023/01/25 07:26:17;;;;;;;24.13;13.05;;;;;;;7.25;55.63;103156.97;5066699;27;96915;-70
2023/01/25 07:28:44;;;;;;;29.55;12.20;;;;;;;7.13;55.93;103141.91;5067723;27;97045;-71
2023/01/25 07:31:10;;;;;;;27.98;14.10;;;;;;;7.17;56.26;103150.69;5065198;27;100676;-70
2023/01/25 07:33:38;;;;;;;21.77;12.80;;;;;;;7.14;56.12;103137.53;5063113;27;101388;-71
2023/01/25 07:36:07;;;;;;;23.88;12.82;;;;;;;7.12;56.11;103131.34;5062939;27;97203;-69
2023/01/25 07:38:34;;;;;;;24.40;12.88;;;;;;;7.46;55.21;103141.53;5075648;27;96877;-70
2023/01/25 07:41:01;;;;;;;22.98;12.15;;;;;;;7.29;55.43;103135.13;5066062;27;100626;-70
2023/01/25 07:43:28;;;;;;;27.08;13.35;;;;;;;7.15;56.14;103131.41;5072482;27;98804;-69
2023/01/25 07:45:59;;;;;;;27.00;13.65;;;;;;;6.75;56.70;103137.72;5073808;27;97273;-70
2023/01/25 07:48:27;;;;;;;25.75;12.40;;;;;;;7.12;56.41;103136.59;5064355;27;96772;-72
2023/01/25 07:51:11;;;;;;;22.40;11.73;;;;;;;7.31;55.56;103125.53;5071669;27;102656;-71
2023/01/25 07:53:38;;;;;;;25.30;12.38;;;;;;;7.25;55.81;103114.00;5059736;27;99115;-70
2023/01/25 07:56:06;;;;;;;25.55;12.35;;;;;;;7.03;56.68;103125.91;5066972;27;96719;-71
2023/01/25 07:58:32;;;;;;;21.60;12.15;;;;;;;6.99;56.85;103126.75;5062905;27;97421;-70
2023/01/25 08:01:06;;;;;;;32.38;12.88;;;;;;;7.12;56.88;103115.56;5072021;27;97599;-70
2023/01/25 08:03:32;;;;;;;28.40;13.93;;;;;;;7.27;56.29;103110.56;5074798;27;101707;-70
2023/01/25 08:05:59;;;;;;;24.92;13.13;;;;;;;7.28;56.46;103112.34;5075864;27;98559;-69
2023/01/25 08:08:27;;;;;;;26.50;13.55;;;;;;;7.32;56.36;103108.00;5081658;27;97720;-71
2023/01/25 08:10:54;;;;;;;25.83;13.18;;;;;;;7.29;56.45;103107.94;5072119;27;99251;-71
2023/01/25 08:13:20;;;;;;;25.52;12.05;;;;;;;7.22;56.61;103107.84;5073178;27;98900;-69
2023/01/25 08:15:53;;;;;;;24.65;12.75;;;;;;;7.25;57.07;103101.75;5067890;27;98327;-69
2023/01/25 08:18:20;;;;;;;24.35;13.43;;;;;;;7.30;56.96;103100.06;5064708;27;96759;-69
2023/01/25 08:20:46;;;;;;;25.55;12.27;;;;;;;7.22;57.29;103100.84;5078610;27;97602;-69
2023/01/25 08:23:12;;;;;;;25.30;13.13;;;;;;;7.21;57.13;103099.94;5070620;27;99331;-70
2023/01/25 08:25:40;;;;;;;23.33;12.43;;;;;;;6.92;58.22;103101.22;5072883;27;97279;-69
2023/01/25 08:28:10;;;;;;;21.92;12.38;;;;;;;7.17;57.77;103091.13;5068276;27;100965;-70
2023/01/25 08:30:36;;;;;;;26.23;13.20;;;;;;;7.08;57.94;103098.88;5063093;27;98611;-69
2023/01/25 08:33:03;;;;;;;27.27;14.23;;;;;;;7.05;58.28;103103.19;5066015;27;99493;-69
2023/01/25 08:35:29;;;;;;;25.90;13.57;;;;;;;7.37;57.44;103088.78;5057801;27;97979;-68
2023/01/25 08:37:56;;;;;;;21.98;11.30;;;;;;;7.27;57.34;103093.91;5066819;27;97508;-69
2023/01/25 08:40:22;;;;;;;29.55;12.90;;;;;;;7.22;57.36;103096.44;5062369;27;102108;-70
2023/01/25 08:42:50;;;;;;;24.55;12.60;;;;;;;7.22;57.32;103091.19;5069526;27;101897;-68
2023/01/25 08:45:17;;;;;;;30.92;14.02;;;;;;;7.53;56.69;103089.91;5064254;27;97494;-69
2023/01/25 08:47:44;;;;;;;31.00;13.75;;;;;;;7.61;56.58;103086.50;5075759;27;97478;-69
2023/01/25 08:50:11;;;;;;;25.98;13.68;;;;;;;7.55;56.88;103081.16;5066012;27;98886;-70
2023/01/25 08:52:37;;;;;;;27.65;13.80;;;;;;;7.64;56.65;103071.63;5068687;27;99246;-69
2023/01/25 08:55:04;;;;;;;27.73;14.15;;;;;;;7.48;56.91;103081.94;5067614;27;96807;-70
2023/01/25 08:57:31;;;;;;;27.35;13.48;;;;;;;7.41;56.85;103077.47;5061078;27;97059;-69
2023/01/25 08:59:59;;;;;;;22.38;11.73;;;;;;;7.17;57.10;103084.97;5075184;27;97615;-69
2023/01/25 09:02:27;;;;;;;28.75;13.88;;;;;;;7.02;58.16;103093.50;5057606;27;98412;-69
2023/01/25 09:04:53;;;;;;;24.98;13.75;;;;;;;6.77;58.83;103093.94;5068228;27;98189;-70
2023/01/25 09:07:20;;;;;;;25.83;13.70;;;;;;;7.08;57.99;103082.22;5068865;27;98524;-69
2023/01/25 09:09:46;;;;;;;30.08;13.77;;;;;;;7.20;57.74;103083.28;5076450;27;97830;-70
2023/01/25 09:12:12;;;;;;;34.17;15.75;;;;;;;7.37;57.50;103086.16;5069102;27;102347;-70
2023/01/25 09:14:39;;;;;;;24.25;12.32;;;;;;;7.10;57.78;103085.72;5067212;27;98874;-70
2023/01/25 09:17:07;;;;;;;26.92;12.85;;;;;;;7.00;58.00;103094.34;5061717;27;97128;-68
2023/01/25 09:19:33;;;;;;;28.10;13.05;;;;;;;6.79;59.15;103094.84;5064915;27;101209;-70
2023/01/25 09:22:00;;;;;;;26.55;13.75;;;;;;;7.03;58.40;103094.38;5067810;27;99341;-70
2023/01/25 09:24:26;;;;;;;27.85;14.82;;;;;;;7.14;57.71;103087.56;5069936;27;97269;-69
2023/01/25 09:26:52;;;;;;;28.05;14.57;;;;;;;7.21;57.64;103073.66;5067679;27;97326;-69
2023/01/25 09:29:19;;;;;;;25.90;12.95;;;;;;;6.98;58.15;103080.28;5067287;27;99141;-70
2023/01/25 09:31:45;;;;;;;30.17;14.63;;;;;;;6.92;58.73;103082.81;5073163;27;101126;-69
2023/01/25 09:34:15;;;;;;;31.13;15.07;;;;;;;7.14;58.02;103069.16;5071307;27;97884;-69
2023/01/25 09:36:41;;;;;;;32.15;14.15;;;;;;;7.19;57.82;103075.38;5067522;27;97055;-69
2023/01/25 09:39:10;;;;;;;30.67;14.73;;;;;;;7.15;57.72;103076.19;5059984;27;99435;-69
2023/01/25 09:42:05;;;;;;;30.98;15.43;;;;;;;7.20;57.88;103069.25;5063754;27;99337;-70
2023/01/25 09:44:51;;;;;;;33.13;13.15;;;;;;;7.36;56.99;103065.97;5073482;27;97111;-70
2023/01/25 09:47:25;;;;;;;28.00;13.38;;;;;;;7.39;56.97;103059.88;5063042;27;98595;-69
2023/01/25 09:50:11;;;;;;;27.13;13.27;;;;;;;7.25;57.53;103050.91;5076870;27;98883;-69
2023/01/25 09:52:59;;;;;;;31.52;14.80;;;;;;;7.20;57.82;103045.59;5067230;27;100125;-69
2023/01/25 09:55:29;;;;;;;31.90;13.90;;;;;;;7.26;57.21;103045.69;5072745;27;97213;-70
2023/01/25 09:57:59;;;;;;;26.92;13.65;;;;;;;7.35;57.41;103040.53;5075899;27;96781;-69
2023/01/25 10:00:31;;;;;;;30.95;14.05;;;;;;;7.19;57.73;103049.97;5069394;27;100243;-70
2023/01/25 10:03:03;;;;;;;23.08;12.52;;;;;;;6.77;58.51;103055.41;5070707;27;98990;-69
2023/01/25 10:05:37;;;;;;;28.92;13.60;;;;;;;7.04;58.05;103047.09;5058732;27;98576;-69
2023/01/25 10:08:08;;;;;;;28.88;13.50;;;;;;;7.20;57.75;103043.84;5071770;27;96713;-69
2023/01/25 10:10:38;;;;;;;25.52;13.00;;;;;;;7.38;57.08;103040.59;5059631;27;102437;-70
2023/01/25 10:13:11;;;;;;;26.25;13.65;;;;;;;7.34;57.21;103033.53;5067532;27;99036;-70
2023/01/25 10:15:40;;;;;;;28.52;13.40;;;;;;;7.08;57.78;103025.25;5064633;27;96789;-69
2023/01/25 10:18:19;;;;;;;28.00;13.88;;;;;;;7.27;57.23;103036.94;5074209;27;96822;-69
2023/01/25 10:20:52;;;;;;;29.88;14.23;;;;;;;7.37;57.06;103027.41;5062770;27;98764;-69
2023/01/25 10:23:34;;;;;;;31.13;14.30;;;;;;;7.56;56.66;103022.41;5059137;27;98982;-70
2023/01/25 10:26:01;;;;;;;29.42;13.52;;;;;;;6.85;58.42;103020.50;5064517;27;98761;-70
2023/01/25 10:28:39;;;;;;;29.55;14.38;;;;;;;7.06;58.23;103015.56;5077114;27;97824;-69
2023/01/25 10:31:11;;;;;;;31.50;14.60;;;;;;;7.19;57.54;103007.00;5072901;27;98931;-69
2023/01/25 10:33:43;;;;;;;35.30;15.25;;;;;;;7.53;56.89;103001.34;5065672;27;97475;-70
2023/01/25 10:36:14;;;;;;;37.65;16.15;;;;;;;7.20;57.72;102993.00;5060073;27;98788;-69
2023/01/25 10:38:43;;;;;;;28.38;13.80;;;;;;;7.19;57.56;102994.75;5077976;27;96651;-70
2023/01/25 10:41:14;;;;;;;33.92;15.50;;;;;;;7.17;57.66;102999.09;5065008;27;102099;-69
2023/01/25 10:43:40;;;;;;;31.77;14.50;;;;;;;6.90;58.31;102989.91;5069910;27;98926;-69
2023/01/25 10:46:19;;;;;;;30.23;14.20;;;;;;;7.06;58.21;102992.81;5062941;27;97328;-70
2023/01/25 10:48:45;;;;;;;29.08;13.98;;;;;;;6.88;58.57;102995.16;5069413;27;97783;-69
2023/01/25 10:51:29;;;;;;;29.40;14.52;;;;;;;6.95;58.89;102980.38;5063111;27;99864;-69
2023/01/25 10:54:01;;;;;;;33.20;14.93;;;;;;;7.09;58.21;102981.41;5072625;27;98964;-69
2023/01/25 10:56:28;;;;;;;33.92;14.77;;;;;;;6.98;58.47;102981.28;5077705;27;96862;-70
2023/01/25 10:59:08;;;;;;;28.30;15.07;;;;;;;7.10;58.16;102981.44;5064092;27;97625;-70
2023/01/25 11:01:36;;;;;;;32.33;14.20;;;;;;;7.10;58.06;102978.81;5066993;27;100821;-69
2023/01/25 11:04:21;;;;;;;29.50;14.23;;;;;;;7.19;57.56;102963.19;5070320;27;99358;-69
2023/01/25 11:06:50;;;;;;;33.70;15.52;;;;;;;7.44;56.82;102955.59;5069517;27;98378;-70
2023/01/25 11:09:34;;;;;;;34.08;15.80;;;;;;;7.43;56.92;102948.56;5072294;27;97111;-69
2023/01/25 11:12:02;;;;;;;37.35;16.58;;;;;;;7.21;57.67;102952.69;5067218;27;99276;-69
2023/01/25 11:14:30;;;;;;;30.85;14.85;;;;;;;7.12;58.00;102949.94;5062768;27;98045;-69
2023/01/25 11:16:58;;;;;;;34.90;16.65;;;;;;;6.95;58.76;102948.81;5070897;27;98782;-70
2023/01/25 11:19:28;;;;;;;33.42;16.77;;;;;;;6.80;59.06;102942.47;5058179;27;97797;-70
2023/01/25 11:21:57;;;;;;;35.38;16.63;;;;;;;7.13;58.46;102944.69;5066821;27;99612;-70
2023/01/25 11:24:26;;;;;;;36.65;15.68;;;;;;;6.96;58.25;102929.53;5060978;27;98916;-69